KBYH/BYH METAR and TAF weather

Enter ICAO airport designator
Station Type Date Time Source
KBYH METAR 2020/12/04 21:50 UTC NOAA

KBYH 042150Z 28008KT 10SM SKC 11/02 A3008 RMK LAST


Station Type Date Time Source
KBYH Decoded METAR 2020/12/04 21:50 UTC NOAA

Eaker Air Force Base, AR, United States (KBYH) 35-58N 089-57W
Dec 04, 2020 - 04:50 PM EST / 2020.12.04 2150 UTC
Wind: from the W (280 degrees) at 9 MPH (8 KT):0
Visibility: 10 mile(s):0
Sky conditions: clear
Temperature: 51 F (11 C)
Dew Point: 35 F (2 C)
Relative Humidity: 53%
Pressure (altimeter): 30.08 in. Hg (1018 hPa)
ob: KBYH 042150Z 28008KT 10SM SKC 11/02 A3008 RMK LAST
cycle: 22

Station Type Date Time Source
KBYH TAF UTC NOAA

Error!

Example: see airport list